createdAt,value
2019-03-15T00:03:13.089Z,8.20
2019-03-15T00:08:15.599Z,8.20
2019-03-15T00:13:18.081Z,8.20
2019-03-15T00:18:20.498Z,8.20
2019-03-15T00:23:22.985Z,8.20
2019-03-15T00:28:27.343Z,8.10
2019-03-15T00:33:29.933Z,7.90
2019-03-15T00:38:32.491Z,7.70
2019-03-15T00:43:36.128Z,7.50
2019-03-15T00:48:38.716Z,7.30
2019-03-15T00:53:41.459Z,7.20
2019-03-15T00:58:44.829Z,7.10
2019-03-15T01:03:47.385Z,7.10
2019-03-15T01:08:49.839Z,7.00
2019-03-15T01:13:52.434Z,7.00
2019-03-15T01:18:54.882Z,6.90
2019-03-15T01:23:57.374Z,6.80
2019-03-15T01:29:00.812Z,6.60
2019-03-15T01:34:04.020Z,6.60
2019-03-15T01:39:07.033Z,6.50
2019-03-15T01:44:09.813Z,6.50
2019-03-15T01:49:12.266Z,6.40
2019-03-15T01:54:14.708Z,6.40
2019-03-15T01:59:17.307Z,6.40
2019-03-15T02:04:19.979Z,6.50
2019-03-15T02:09:22.537Z,6.60
2019-03-15T02:14:24.987Z,6.70
2019-03-15T02:19:27.471Z,6.80
2019-03-15T02:24:29.881Z,7.00
2019-03-15T02:29:32.431Z,7.10
2019-03-15T02:34:34.912Z,7.20
2019-03-15T02:39:37.332Z,7.20
2019-03-15T02:44:39.799Z,7.10
2019-03-15T02:49:42.250Z,7.00
2019-03-15T02:54:44.813Z,6.90
2019-03-15T02:59:48.559Z,6.80
2019-03-15T03:04:51.369Z,6.70
2019-03-15T03:09:53.864Z,6.60
2019-03-15T03:14:56.226Z,6.60
2019-03-15T03:19:58.630Z,6.60
2019-03-15T03:25:01.153Z,6.70
2019-03-15T03:30:04.388Z,6.70
2019-03-15T03:35:09.540Z,6.90
2019-03-15T03:40:11.207Z,6.90
2019-03-15T03:45:13.637Z,7.00
2019-03-15T03:50:16.102Z,7.00
2019-03-15T03:55:19.481Z,7.00
2019-03-15T04:00:22.688Z,7.00
2019-03-15T04:05:26.295Z,6.90
2019-03-15T04:10:29.105Z,6.80
2019-03-15T04:15:33.045Z,6.70
2019-03-15T04:20:35.572Z,6.70
2019-03-15T04:25:40.529Z,6.60
2019-03-15T04:30:42.921Z,6.50
2019-03-15T04:35:45.357Z,6.40
2019-03-15T04:40:48.812Z,6.40
2019-03-15T04:45:51.385Z,6.30
2019-03-15T04:50:53.912Z,6.20
2019-03-15T05:01:43.020Z,6.00
2019-03-15T05:06:45.613Z,6.00
2019-03-15T05:11:48.121Z,6.00
2019-03-15T05:16:50.594Z,6.00
2019-03-15T05:21:53.157Z,6.20
2019-03-15T05:26:55.822Z,6.30
2019-03-15T05:31:58.373Z,6.30
2019-03-15T05:37:01.049Z,6.30
2019-03-15T05:42:04.380Z,6.50
2019-03-15T05:47:07.797Z,6.80
2019-03-15T05:52:11.160Z,7.10
2019-03-15T05:57:13.699Z,7.40
2019-03-15T06:02:17.954Z,7.60
2019-03-15T06:07:20.736Z,7.90
2019-03-15T06:12:23.552Z,8.00
2019-03-15T06:17:26.006Z,8.10
2019-03-15T06:22:28.616Z,8.20
2019-03-15T06:27:31.357Z,8.30
2019-03-15T06:32:34.445Z,8.40
2019-03-15T06:37:37.065Z,8.50
2019-03-15T06:42:40.215Z,8.60
2019-03-15T06:47:42.695Z,8.60
2019-03-15T06:52:45.116Z,8.80
2019-03-15T06:57:47.626Z,8.90
2019-03-15T07:02:50.076Z,8.90
2019-03-15T07:07:52.924Z,9.00
2019-03-15T07:12:55.421Z,9.20
2019-03-15T07:17:57.963Z,9.30
2019-03-15T07:23:00.843Z,9.40
2019-03-15T07:28:03.301Z,9.50
2019-03-15T07:33:05.729Z,9.60
2019-03-15T07:38:08.392Z,9.50
2019-03-15T07:43:10.872Z,9.50
2019-03-15T07:48:22.239Z,9.50
2019-03-15T07:53:18.003Z,9.50
2019-03-15T07:58:20.708Z,9.60
2019-03-15T08:03:23.400Z,9.70
2019-03-15T08:08:26.240Z,9.70
2019-03-15T08:13:28.681Z,9.60
2019-03-15T08:18:31.089Z,9.60
2019-03-15T08:23:33.488Z,9.60
2019-03-15T08:28:36.344Z,9.50
2019-03-15T08:33:39.279Z,9.40
2019-03-15T08:38:47.865Z,9.30
2019-03-15T08:43:47.475Z,9.30
2019-03-15T08:48:50.153Z,9.30
2019-03-15T08:53:52.679Z,9.20
2019-03-15T08:58:55.101Z,9.00
2019-03-15T09:03:57.649Z,9.00
2019-03-15T09:14:46.504Z,8.90
2019-03-15T09:19:49.094Z,9.10
2019-03-15T09:24:51.563Z,9.10
2019-03-15T09:29:54.399Z,9.20
2019-03-15T09:34:56.881Z,9.30
2019-03-15T09:40:00.436Z,9.30
2019-03-15T09:45:03.306Z,9.50
2019-03-15T09:50:21.112Z,9.40
2019-03-15T09:55:13.681Z,9.40
2019-03-15T10:00:16.338Z,9.60
2019-03-15T10:05:18.925Z,9.80
2019-03-15T10:10:21.711Z,9.60
2019-03-15T10:15:26.568Z,9.60
2019-03-15T10:20:29.714Z,9.60
2019-03-15T10:25:45.683Z,9.60
2019-03-15T10:30:36.670Z,9.40
2019-03-15T10:35:39.091Z,9.40
2019-03-15T10:40:41.952Z,9.50
2019-03-15T10:45:44.872Z,9.30
2019-03-15T10:50:47.254Z,9.10
2019-03-15T10:55:59.566Z,9.10
2019-03-15T11:00:54.186Z,8.90
2019-03-15T11:05:56.639Z,8.90
2019-03-15T11:10:59.380Z,8.80
2019-03-15T11:16:02.001Z,8.90
2019-03-15T11:21:04.593Z,9.00
2019-03-15T11:26:13.574Z,9.00
2019-03-15T11:31:12.092Z,9.10
2019-03-15T11:36:14.907Z,9.30
2019-03-15T11:41:17.976Z,9.60
2019-03-15T11:46:20.457Z,9.50
2019-03-15T11:51:22.875Z,9.60
2019-03-15T11:56:27.242Z,9.70
2019-03-15T12:01:29.636Z,9.70
2019-03-15T12:06:32.305Z,9.70
2019-03-15T12:11:35.217Z,10.00
2019-03-15T12:16:37.807Z,10.10
2019-03-15T12:22:05.318Z,10.00
2019-03-15T12:26:58.804Z,10.20
2019-03-15T12:32:01.609Z,10.30
2019-03-15T12:37:04.102Z,10.20
2019-03-15T12:42:09.888Z,10.30
2019-03-15T12:47:12.971Z,10.40
2019-03-15T12:52:16.259Z,10.40
2019-03-15T12:57:18.639Z,10.40
2019-03-15T13:02:21.073Z,10.50
2019-03-15T13:07:23.452Z,10.50
2019-03-15T13:12:26.188Z,10.60
2019-03-15T13:17:28.632Z,10.60
2019-03-15T13:22:30.993Z,10.70
2019-03-15T13:27:33.730Z,10.80
2019-03-15T13:32:36.148Z,11.00
2019-03-15T13:37:42.504Z,11.10
2019-03-15T13:42:44.831Z,11.00
2019-03-15T13:47:47.510Z,11.10
2019-03-15T13:52:49.994Z,11.10
2019-03-15T13:57:56.004Z,11.10
2019-03-15T14:02:58.276Z,11.20
2019-03-15T14:08:11.195Z,11.30
2019-03-15T14:13:07.028Z,11.40
2019-03-15T14:18:09.537Z,11.50
2019-03-15T14:23:12.033Z,11.60
2019-03-15T14:28:14.630Z,11.60
2019-03-15T14:33:17.761Z,11.70
2019-03-15T14:38:21.332Z,11.80
2019-03-15T14:43:24.050Z,11.90
2019-03-15T14:48:26.392Z,12.00
2019-03-15T14:53:28.855Z,12.10
2019-03-15T14:58:31.435Z,12.10
2019-03-15T15:03:35.097Z,12.20
2019-03-15T15:08:37.572Z,12.20
2019-03-15T15:13:40.732Z,12.20
2019-03-15T15:18:43.372Z,12.20
2019-03-15T15:23:48.097Z,12.20
2019-03-15T15:28:51.447Z,12.30
2019-03-15T15:33:53.859Z,12.30
2019-03-15T15:38:56.625Z,12.30
2019-03-15T15:43:59.265Z,12.30
2019-03-15T15:49:03.062Z,12.40
2019-03-15T15:54:06.556Z,12.30
2019-03-15T15:59:10.522Z,12.40
2019-03-15T16:04:15.158Z,12.40
2019-03-15T16:09:18.874Z,12.40
2019-03-15T16:14:22.153Z,12.40
2019-03-15T16:19:24.661Z,12.40
2019-03-15T16:24:27.519Z,12.40
2019-03-15T16:29:29.811Z,12.50
2019-03-15T16:34:32.264Z,12.50
2019-03-15T16:39:35.034Z,12.50
2019-03-15T16:44:37.908Z,12.60
2019-03-15T16:49:41.093Z,12.70
2019-03-15T16:54:43.704Z,12.70
2019-03-15T16:59:46.676Z,12.80
2019-03-15T17:04:49.412Z,12.80
2019-03-15T17:09:52.172Z,12.80
2019-03-15T17:14:54.793Z,12.80
2019-03-15T17:19:57.740Z,12.80
2019-03-15T17:25:01.557Z,12.60
2019-03-15T17:30:05.469Z,12.40
2019-03-15T17:35:09.670Z,12.30
2019-03-15T17:40:12.420Z,12.30
2019-03-15T17:45:15.186Z,12.20
2019-03-15T17:50:18.428Z,12.30
2019-03-15T17:55:21.028Z,12.40
2019-03-15T18:00:42.002Z,12.50
2019-03-15T18:05:44.957Z,12.50
2019-03-15T18:10:48.105Z,12.60
2019-03-15T18:15:50.987Z,12.70
2019-03-15T18:20:53.463Z,12.80
2019-03-15T18:25:58.367Z,12.90
2019-03-15T18:31:00.780Z,13.00
2019-03-15T18:36:03.147Z,13.00
2019-03-15T18:41:05.677Z,12.80
2019-03-15T18:46:09.348Z,12.60
2019-03-15T18:51:14.088Z,12.50
2019-03-15T18:56:16.627Z,12.40
2019-03-15T19:07:06.716Z,12.20
2019-03-15T19:12:10.844Z,12.20
2019-03-15T19:17:16.215Z,12.10
2019-03-15T19:22:27.054Z,12.10
2019-03-15T19:27:28.482Z,12.10
2019-03-15T19:32:33.420Z,12.20
2019-03-15T19:37:35.958Z,12.20
2019-03-15T19:42:40.161Z,12.20
2019-03-15T19:47:43.859Z,12.20
2019-03-15T19:52:47.720Z,12.10
2019-03-15T19:57:51.649Z,12.20
2019-03-15T20:02:54.587Z,12.10
2019-03-15T20:07:58.937Z,12.10
2019-03-15T20:13:02.798Z,12.10
2019-03-15T20:18:06.345Z,12.10
2019-03-15T20:23:09.965Z,12.10
2019-03-15T20:28:13.522Z,12.10
2019-03-15T20:33:17.391Z,12.10
2019-03-15T20:38:20.630Z,12.10
2019-03-15T20:43:23.696Z,12.00
2019-03-15T20:48:27.676Z,12.00
2019-03-15T20:53:30.772Z,12.00
2019-03-15T20:58:33.589Z,12.00
2019-03-15T21:03:37.146Z,12.00
2019-03-15T21:08:39.903Z,12.00
2019-03-15T21:13:42.540Z,12.00
2019-03-15T21:18:46.257Z,12.00
2019-03-15T21:29:35.240Z,11.90
2019-03-15T21:34:37.988Z,11.90
2019-03-15T21:39:40.791Z,11.90
2019-03-15T21:44:44.041Z,11.90
2019-03-15T21:49:47.413Z,11.90
2019-03-15T21:54:50.810Z,12.00
2019-03-15T21:59:54.577Z,11.90
2019-03-15T22:04:57.143Z,11.90
2019-03-15T22:09:59.680Z,12.00
2019-03-15T22:15:02.167Z,12.00
2019-03-15T22:20:05.991Z,12.00
2019-03-15T22:25:08.850Z,12.00
2019-03-15T22:30:11.428Z,11.90
2019-03-15T22:35:14.262Z,12.00
2019-03-15T22:40:17.080Z,11.90
2019-03-15T22:45:19.574Z,12.00
2019-03-15T22:50:22.241Z,12.00
2019-03-15T22:55:24.601Z,11.90
2019-03-15T23:00:33.008Z,11.90
2019-03-15T23:05:37.331Z,11.90
2019-03-15T23:10:40.951Z,12.00
2019-03-15T23:15:43.433Z,12.00
2019-03-15T23:20:46.771Z,12.00
2019-03-15T23:25:49.308Z,12.00
2019-03-15T23:30:51.839Z,12.00
2019-03-15T23:35:54.885Z,12.00
2019-03-15T23:40:57.369Z,12.00
2019-03-15T23:45:59.860Z,12.00
2019-03-15T23:51:02.589Z,12.00
2019-03-15T23:56:07.667Z,12.10
